createdAt,value
2022-12-12T00:01:40.134Z,2.95
2022-12-12T00:04:07.431Z,5.47
2022-12-12T00:06:34.372Z,3.95
2022-12-12T00:09:01.633Z,4.13
2022-12-12T00:11:28.632Z,4.88
2022-12-12T00:13:55.619Z,10.30
2022-12-12T00:16:23.766Z,5.97
2022-12-12T00:18:51.155Z,4.28
2022-12-12T00:21:22.185Z,3.55
2022-12-12T00:23:49.565Z,7.55
2022-12-12T00:26:20.582Z,9.95
2022-12-12T00:28:47.942Z,5.97
2022-12-12T00:31:16.282Z,7.60
2022-12-12T00:33:45.082Z,12.10
2022-12-12T00:36:12.172Z,5.82
2022-12-12T00:38:39.207Z,5.38
2022-12-12T00:41:06.444Z,4.72
2022-12-12T00:43:33.713Z,6.97
2022-12-12T00:46:01.234Z,8.50
2022-12-12T00:48:28.743Z,3.58
2022-12-12T00:50:56.642Z,4.75
2022-12-12T00:53:24.089Z,5.40
2022-12-12T00:55:58.195Z,10.30
2022-12-12T00:58:25.872Z,8.80
2022-12-12T01:00:53.436Z,4.35
2022-12-12T01:03:21.183Z,5.03
2022-12-12T01:05:48.340Z,9.23
2022-12-12T01:08:15.565Z,4.57
2022-12-12T01:10:42.579Z,4.22
2022-12-12T01:13:09.486Z,3.13
2022-12-12T01:15:36.441Z,4.60
2022-12-12T01:18:03.366Z,4.65
2022-12-12T01:20:30.294Z,4.65
2022-12-12T01:22:57.394Z,3.28
2022-12-12T01:25:24.312Z,6.65
2022-12-12T01:27:51.555Z,4.47
2022-12-12T01:30:21.717Z,5.20
2022-12-12T01:32:49.325Z,5.60
2022-12-12T01:35:16.448Z,3.33
2022-12-12T01:37:43.729Z,6.95
2022-12-12T01:40:19.214Z,3.30
2022-12-12T01:42:47.011Z,3.53
2022-12-12T01:45:51.234Z,2.95
2022-12-12T01:48:19.769Z,3.97
2022-12-12T01:50:47.042Z,4.03
2022-12-12T01:53:17.565Z,5.45
2022-12-12T01:55:46.355Z,4.32
2022-12-12T01:58:13.684Z,4.00
2022-12-12T02:00:41.431Z,5.05
2022-12-12T02:03:08.732Z,10.25
2022-12-12T02:05:44.423Z,2.53
2022-12-12T02:08:13.049Z,5.93
2022-12-12T02:10:39.990Z,6.03
2022-12-12T02:13:11.810Z,8.48
2022-12-12T02:16:09.473Z,3.55
2022-12-12T02:18:52.549Z,4.00
2022-12-12T02:21:23.246Z,3.67
2022-12-12T02:24:49.265Z,7.75
2022-12-12T02:27:29.340Z,2.78
2022-12-12T02:30:20.700Z,3.97
2022-12-12T02:33:07.117Z,7.70
2022-12-12T02:35:39.304Z,3.65
2022-12-12T02:38:43.178Z,4.55
2022-12-12T02:41:25.325Z,2.33
2022-12-12T02:44:22.335Z,2.80
2022-12-12T02:46:56.282Z,3.20
2022-12-12T02:49:28.923Z,3.85
2022-12-12T02:51:58.465Z,3.05
2022-12-12T02:54:25.921Z,3.85
2022-12-12T02:56:56.001Z,2.50
2022-12-12T02:59:37.033Z,2.55
2022-12-12T03:06:28.799Z,2.15
2022-12-12T03:09:16.551Z,2.80
2022-12-12T03:12:11.600Z,4.70
2022-12-12T03:14:57.491Z,2.88
2022-12-12T03:17:41.556Z,2.78
2022-12-12T03:20:11.604Z,3.35
2022-12-12T03:22:56.593Z,3.88
2022-12-12T03:25:27.776Z,3.05
2022-12-12T03:28:12.064Z,4.80
2022-12-12T03:30:44.265Z,2.40
2022-12-12T03:33:27.516Z,3.88
2022-12-12T03:36:00.448Z,3.80
2022-12-12T03:38:32.872Z,2.20
2022-12-12T03:41:04.204Z,4.88
2022-12-12T03:43:49.481Z,2.58
2022-12-12T03:46:16.799Z,3.72
2022-12-12T03:49:03.977Z,2.80
2022-12-12T03:51:33.406Z,2.00
2022-12-12T03:54:23.309Z,3.40
2022-12-12T03:57:00.907Z,2.60
2022-12-12T03:59:38.648Z,2.53
2022-12-12T04:02:34.196Z,4.10
2022-12-12T04:05:21.720Z,2.53
2022-12-12T04:07:52.933Z,6.13
2022-12-12T04:10:42.334Z,3.00
2022-12-12T04:13:32.393Z,2.90
2022-12-12T04:16:20.661Z,3.58
2022-12-12T04:18:58.413Z,4.18
2022-12-12T04:22:05.068Z,3.25
2022-12-12T04:25:01.501Z,3.78
2022-12-12T04:27:37.518Z,3.95
2022-12-12T04:30:07.184Z,2.33
2022-12-12T04:32:40.747Z,6.45
2022-12-12T04:35:44.289Z,4.73
2022-12-12T04:38:17.322Z,3.70
2022-12-12T04:40:51.804Z,3.50
2022-12-12T04:45:53.693Z,4.70
2022-12-12T04:48:28.445Z,6.15
2022-12-12T04:50:57.858Z,6.57
2022-12-12T04:53:35.672Z,5.22
2022-12-12T04:56:08.676Z,6.50
2022-12-12T04:58:37.533Z,7.93
2022-12-12T05:01:16.135Z,6.50
2022-12-12T05:03:54.256Z,3.20
2022-12-12T05:06:44.905Z,7.40
2022-12-12T05:09:14.304Z,4.90
2022-12-12T05:11:42.546Z,3.53
2022-12-12T05:14:10.161Z,4.65
2022-12-12T05:16:47.501Z,5.25
2022-12-12T05:19:14.576Z,6.63
2022-12-12T05:21:41.499Z,5.03
2022-12-12T05:24:08.530Z,5.22
2022-12-12T05:26:36.668Z,4.50
2022-12-12T05:29:07.461Z,4.07
2022-12-12T05:31:35.014Z,6.38
2022-12-12T05:34:02.113Z,7.70
2022-12-12T05:36:29.067Z,4.70
2022-12-12T05:38:56.127Z,4.22
2022-12-12T05:41:23.042Z,5.00
2022-12-12T05:43:49.936Z,4.28
2022-12-12T05:46:17.158Z,5.45
2022-12-12T05:48:44.677Z,4.38
2022-12-12T05:51:11.619Z,3.42
2022-12-12T05:53:42.776Z,3.13
2022-12-12T05:56:11.649Z,3.40
2022-12-12T05:58:39.706Z,9.43
2022-12-12T06:01:06.900Z,5.63
2022-12-12T06:03:33.876Z,2.47
2022-12-12T06:06:01.140Z,3.35
2022-12-12T06:08:28.145Z,3.15
2022-12-12T06:10:55.133Z,4.75
2022-12-12T06:13:22.208Z,3.83
2022-12-12T06:15:49.542Z,6.40
2022-12-12T06:18:16.568Z,3.67
2022-12-12T06:20:43.805Z,4.10
2022-12-12T06:23:10.709Z,5.65
2022-12-12T06:25:37.565Z,3.55
2022-12-12T06:28:04.498Z,3.95
2022-12-12T06:30:31.771Z,4.35
2022-12-12T06:32:59.131Z,4.38
2022-12-12T06:35:26.462Z,3.88
2022-12-12T06:37:53.335Z,4.32
2022-12-12T06:40:20.311Z,4.60
2022-12-12T06:42:48.769Z,4.05
2022-12-12T06:45:16.810Z,4.50
2022-12-12T06:47:44.180Z,3.33
2022-12-12T06:50:11.971Z,3.85
2022-12-12T06:52:38.917Z,4.95
2022-12-12T06:55:06.651Z,6.15
2022-12-12T06:57:33.793Z,4.57
2022-12-12T07:00:01.071Z,4.07
2022-12-12T07:02:30.314Z,5.25
2022-12-12T07:08:45.584Z,2.80
2022-12-12T07:11:16.533Z,4.72
2022-12-12T07:13:43.909Z,4.40
2022-12-12T07:16:11.373Z,5.90
2022-12-12T07:18:38.705Z,3.78
2022-12-12T07:21:07.696Z,4.03
2022-12-12T07:23:35.671Z,4.80
2022-12-12T07:26:09.434Z,4.55
2022-12-12T07:28:38.275Z,3.85
2022-12-12T07:31:10.710Z,3.90
2022-12-12T07:33:43.804Z,4.47
2022-12-12T07:36:12.120Z,3.28
2022-12-12T07:38:39.821Z,4.57
2022-12-12T07:41:14.078Z,5.20
2022-12-12T07:43:44.249Z,4.45
2022-12-12T07:46:15.463Z,4.57
2022-12-12T07:48:42.765Z,5.28
2022-12-12T07:51:09.718Z,7.72
2022-12-12T07:53:36.809Z,4.95
2022-12-12T07:56:08.437Z,3.53
2022-12-12T07:58:36.065Z,4.47
2022-12-12T08:01:14.863Z,6.05
2022-12-12T08:03:43.525Z,5.35
2022-12-12T08:06:10.580Z,4.43
2022-12-12T08:08:38.039Z,6.15
2022-12-12T08:11:07.296Z,5.80
2022-12-12T08:13:36.723Z,4.93
2022-12-12T08:16:05.249Z,5.35
2022-12-12T08:18:32.246Z,5.60
2022-12-12T08:20:59.575Z,7.82
2022-12-12T08:23:26.581Z,4.55
2022-12-12T08:25:53.510Z,6.07
2022-12-12T08:28:20.482Z,6.50
2022-12-12T08:30:51.323Z,10.05
2022-12-12T08:33:18.631Z,6.53
2022-12-12T08:35:45.689Z,5.53
2022-12-12T08:38:12.666Z,7.18
2022-12-12T08:40:40.045Z,5.18
2022-12-12T08:43:07.137Z,6.60
2022-12-12T08:45:34.518Z,9.43
2022-12-12T08:48:01.529Z,7.03
2022-12-12T08:50:28.456Z,7.55
2022-12-12T08:52:55.457Z,7.10
2022-12-12T08:55:22.388Z,7.18
2022-12-12T08:57:49.372Z,6.65
2022-12-12T09:00:16.719Z,5.45
2022-12-12T09:02:44.274Z,8.88
2022-12-12T09:05:11.706Z,6.22
2022-12-12T09:07:38.800Z,4.45
2022-12-12T09:10:06.484Z,6.18
2022-12-12T09:12:38.282Z,6.47
2022-12-12T09:15:09.170Z,5.25
2022-12-12T09:17:36.285Z,6.93
2022-12-12T09:20:03.745Z,7.03
2022-12-12T09:22:30.653Z,6.65
2022-12-12T09:24:57.616Z,7.90
2022-12-12T09:27:24.543Z,8.45
2022-12-12T09:29:51.896Z,5.75
2022-12-12T09:32:24.344Z,6.70
2022-12-12T09:34:52.066Z,7.05
2022-12-12T09:37:18.982Z,8.13
2022-12-12T09:39:46.064Z,6.18
2022-12-12T09:42:26.171Z,7.25
2022-12-12T09:44:58.389Z,6.20
2022-12-12T09:47:40.410Z,6.28
2022-12-12T09:50:26.580Z,12.02
2022-12-12T09:52:58.756Z,6.82
2022-12-12T09:55:40.640Z,7.65
2022-12-12T09:58:47.328Z,6.38
2022-12-12T10:07:56.900Z,5.43
2022-12-12T10:10:38.474Z,7.78
2022-12-12T10:13:11.665Z,6.15
2022-12-12T10:15:43.231Z,9.35
2022-12-12T10:18:21.050Z,8.60
2022-12-12T10:20:51.574Z,7.10
2022-12-12T10:23:46.505Z,5.38
2022-12-12T10:26:28.162Z,7.43
2022-12-12T10:29:03.135Z,8.05
2022-12-12T10:31:38.767Z,5.13
2022-12-12T10:34:37.264Z,6.93
2022-12-12T10:37:29.266Z,5.93
2022-12-12T10:40:14.318Z,6.93
2022-12-12T10:43:10.405Z,6.57
2022-12-12T10:45:59.119Z,6.28
2022-12-12T10:48:27.568Z,8.45
2022-12-12T10:51:00.200Z,8.05
2022-12-12T10:53:29.097Z,7.93
2022-12-12T10:56:04.019Z,8.93
2022-12-12T10:58:42.979Z,11.20
2022-12-12T11:01:28.188Z,10.85
2022-12-12T11:04:06.023Z,10.75
2022-12-12T11:06:45.653Z,11.80
2022-12-12T11:09:23.413Z,6.90
2022-12-12T11:12:13.470Z,7.65
2022-12-12T11:14:49.788Z,6.60
2022-12-12T11:17:29.587Z,6.97
2022-12-12T11:20:01.529Z,7.40
2022-12-12T11:22:32.964Z,8.75
2022-12-12T11:25:00.635Z,7.35
2022-12-12T11:27:31.550Z,10.90
2022-12-12T11:30:08.233Z,7.97
2022-12-12T11:32:40.549Z,8.02
2022-12-12T11:35:45.601Z,6.32
2022-12-12T11:38:20.153Z,5.97
2022-12-12T11:40:57.162Z,7.00
2022-12-12T11:43:31.669Z,7.18
2022-12-12T11:48:37.475Z,8.15
2022-12-12T11:51:04.866Z,5.65
2022-12-12T11:53:38.084Z,8.27
2022-12-12T11:56:35.047Z,8.88
2022-12-12T11:59:11.082Z,8.05
2022-12-12T12:01:44.006Z,6.30
2022-12-12T12:04:26.065Z,7.78
2022-12-12T12:07:11.416Z,8.88
2022-12-12T12:09:49.005Z,5.20
2022-12-12T12:12:26.445Z,6.22
2022-12-12T12:15:05.569Z,7.93
2022-12-12T12:17:32.827Z,5.82
2022-12-12T12:20:17.806Z,7.38
2022-12-12T12:23:14.164Z,5.80
2022-12-12T12:26:00.053Z,6.50
2022-12-12T12:29:25.814Z,7.63
2022-12-12T12:32:23.387Z,6.53
2022-12-12T12:35:06.054Z,9.98
2022-12-12T12:37:55.922Z,6.65
2022-12-12T12:40:41.501Z,7.32
2022-12-12T12:43:30.376Z,9.52
2022-12-12T12:46:24.423Z,7.03
2022-12-12T12:48:55.127Z,7.75
2022-12-12T12:51:31.795Z,8.73
2022-12-12T12:54:16.971Z,10.18
2022-12-12T12:56:55.884Z,8.05
2022-12-12T12:59:29.913Z,6.00
2022-12-12T13:02:01.684Z,8.43
2022-12-12T13:04:54.879Z,8.38
2022-12-12T13:07:55.060Z,9.50
2022-12-12T13:10:25.468Z,8.32
2022-12-12T13:12:58.511Z,8.30
2022-12-12T13:15:36.776Z,6.72
2022-12-12T13:18:12.391Z,6.90
2022-12-12T13:20:42.860Z,10.20
2022-12-12T13:23:34.391Z,9.07
2022-12-12T13:26:24.554Z,8.55
2022-12-12T13:28:58.614Z,11.73
2022-12-12T13:31:43.043Z,6.22
2022-12-12T13:34:22.743Z,10.43
2022-12-12T13:36:51.492Z,10.35
2022-12-12T13:39:26.761Z,9.52
2022-12-12T13:42:01.791Z,12.95
2022-12-12T13:44:40.875Z,11.48
2022-12-12T13:47:22.900Z,11.63
2022-12-12T13:49:53.463Z,12.98
2022-12-12T13:52:28.219Z,13.13
2022-12-12T13:55:13.348Z,11.68
2022-12-12T13:58:08.302Z,10.95
2022-12-12T14:00:39.703Z,9.20
2022-12-12T14:03:12.952Z,13.57
2022-12-12T14:05:45.871Z,15.73
2022-12-12T14:08:13.874Z,15.82
2022-12-12T14:10:40.762Z,11.30
2022-12-12T14:13:24.289Z,9.40
2022-12-12T14:16:13.964Z,14.40
2022-12-12T14:19:04.937Z,11.77
2022-12-12T14:21:47.177Z,12.48
2022-12-12T14:24:32.931Z,16.95
2022-12-12T14:27:08.059Z,8.10
2022-12-12T14:29:43.135Z,14.27
2022-12-12T14:32:12.900Z,14.88
2022-12-12T14:35:13.954Z,10.15
2022-12-12T14:38:18.297Z,13.77
2022-12-12T14:40:48.487Z,17.13
2022-12-12T14:43:23.391Z,12.63
2022-12-12T14:45:50.439Z,8.07
2022-12-12T14:48:17.699Z,8.18
2022-12-12T14:50:49.948Z,6.55
2022-12-12T14:53:23.462Z,6.28
2022-12-12T14:55:57.420Z,6.95
2022-12-12T14:58:28.230Z,10.88
2022-12-12T15:00:59.239Z,9.52
2022-12-12T15:03:34.500Z,5.90
2022-12-12T15:06:31.910Z,8.82
2022-12-12T15:09:18.488Z,9.02
2022-12-12T15:11:47.766Z,9.73
2022-12-12T15:14:26.581Z,7.28
2022-12-12T15:17:06.059Z,7.90
2022-12-12T15:19:46.059Z,8.00
2022-12-12T15:22:36.024Z,6.28
2022-12-12T15:25:21.289Z,7.63
2022-12-12T15:27:55.584Z,6.63
2022-12-12T15:30:42.972Z,7.70
2022-12-12T15:33:21.396Z,6.22
2022-12-12T15:36:02.919Z,9.23
2022-12-12T15:38:30.809Z,6.50
2022-12-12T15:41:00.156Z,9.10
2022-12-12T15:43:29.407Z,6.32
2022-12-12T15:46:06.918Z,5.78
2022-12-12T15:48:33.892Z,9.18
2022-12-12T15:51:07.593Z,4.78
2022-12-12T15:53:38.004Z,8.70
2022-12-12T15:56:23.437Z,7.57
2022-12-12T15:59:08.633Z,9.20
2022-12-12T16:01:35.674Z,8.52
2022-12-12T16:04:06.820Z,8.55
2022-12-12T16:06:38.253Z,6.13
2022-12-12T16:09:11.416Z,8.68
2022-12-12T16:11:53.057Z,7.63
2022-12-12T16:14:24.739Z,8.07
2022-12-12T16:17:15.947Z,6.15
2022-12-12T16:19:54.966Z,10.80
2022-12-12T16:22:40.257Z,9.75
2022-12-12T16:25:16.294Z,8.55
2022-12-12T16:27:43.922Z,9.60
2022-12-12T16:30:15.271Z,8.55
2022-12-12T16:32:43.636Z,7.50
2022-12-12T16:35:19.125Z,7.57
2022-12-12T16:37:46.530Z,8.25
2022-12-12T16:40:20.922Z,8.98
2022-12-12T16:42:59.482Z,6.63
2022-12-12T16:45:26.868Z,8.90
2022-12-12T16:47:53.934Z,7.13
2022-12-12T16:50:20.829Z,6.53
2022-12-12T16:52:48.152Z,7.55
2022-12-12T16:55:22.877Z,12.23
2022-12-12T16:57:50.889Z,7.28
2022-12-12T17:00:18.291Z,6.20
2022-12-12T17:02:45.349Z,5.95
2022-12-12T17:05:24.032Z,6.97
2022-12-12T17:07:52.786Z,7.95
2022-12-12T17:10:24.771Z,5.78
2022-12-12T17:12:55.191Z,6.35
2022-12-12T17:15:25.547Z,7.75
2022-12-12T17:17:52.564Z,5.05
2022-12-12T17:20:19.575Z,7.07
2022-12-12T17:22:46.637Z,5.35
2022-12-12T17:25:14.019Z,6.95
2022-12-12T17:27:42.076Z,8.30
2022-12-12T17:30:09.921Z,7.93
2022-12-12T17:32:37.932Z,5.22
2022-12-12T17:35:06.074Z,6.80
2022-12-12T17:37:33.097Z,7.60
2022-12-12T17:40:00.717Z,5.47
2022-12-12T17:42:31.382Z,10.50
2022-12-12T17:44:58.702Z,7.20
2022-12-12T17:51:15.673Z,5.57
2022-12-12T17:53:42.606Z,8.98
2022-12-12T17:56:12.228Z,9.18
2022-12-12T17:59:00.034Z,8.13
2022-12-12T18:01:29.587Z,7.68
2022-12-12T18:03:57.799Z,12.80
2022-12-12T18:06:26.296Z,7.50
2022-12-12T18:08:54.668Z,5.32
2022-12-12T18:11:25.600Z,12.20
2022-12-12T18:13:54.858Z,7.82
2022-12-12T18:16:23.804Z,11.27
2022-12-12T18:18:52.871Z,9.07
2022-12-12T18:21:59.121Z,8.82
2022-12-12T18:24:09.948Z,6.47
2022-12-12T18:26:37.120Z,7.70
2022-12-12T18:29:07.201Z,7.90
2022-12-12T18:31:35.011Z,8.05
2022-12-12T18:37:49.537Z,8.60
2022-12-12T18:40:16.688Z,7.40
2022-12-12T18:42:43.829Z,8.57
2022-12-12T18:45:12.195Z,8.00
2022-12-12T18:47:39.178Z,9.30
2022-12-12T18:50:06.573Z,7.03
2022-12-12T18:52:34.036Z,7.03
2022-12-12T18:55:01.221Z,5.82
2022-12-12T18:57:28.113Z,10.48
2022-12-12T18:59:55.350Z,9.88
2022-12-12T19:02:22.265Z,10.43
2022-12-12T19:04:50.384Z,7.43
2022-12-12T19:07:18.575Z,6.25
2022-12-12T19:09:46.644Z,7.72
2022-12-12T19:12:13.575Z,8.77
2022-12-12T19:15:08.254Z,6.50
2022-12-12T19:17:27.910Z,7.20
2022-12-12T19:19:55.105Z,9.60
2022-12-12T19:22:44.233Z,6.40
2022-12-12T19:25:09.934Z,6.00
2022-12-12T19:27:36.813Z,9.50
2022-12-12T19:30:05.144Z,8.77
2022-12-12T19:32:32.433Z,7.22
2022-12-12T19:34:59.831Z,7.82
2022-12-12T19:37:26.922Z,6.03
2022-12-12T19:39:53.951Z,7.85
2022-12-12T19:42:21.224Z,7.22
2022-12-12T19:44:48.124Z,7.18
2022-12-12T19:47:16.938Z,6.13
2022-12-12T19:49:43.876Z,6.85
2022-12-12T19:52:14.350Z,6.88
2022-12-12T19:54:41.982Z,5.82
2022-12-12T19:57:08.909Z,7.50
2022-12-12T19:59:35.843Z,7.95
2022-12-12T20:02:02.925Z,7.72
2022-12-12T20:04:30.405Z,5.07
2022-12-12T20:06:57.869Z,6.38
2022-12-12T20:09:27.162Z,8.30
2022-12-12T20:11:55.410Z,4.82
2022-12-12T20:14:25.434Z,5.15
2022-12-12T20:16:54.012Z,5.95
2022-12-12T20:19:23.177Z,5.95
2022-12-12T20:22:06.597Z,7.10
2022-12-12T20:24:34.066Z,4.88
2022-12-12T20:27:03.854Z,7.85
2022-12-12T20:29:31.321Z,4.03
2022-12-12T20:32:00.177Z,5.63
2022-12-12T20:34:28.321Z,5.70
2022-12-12T20:36:55.922Z,4.50
2022-12-12T20:39:24.882Z,4.88
2022-12-12T20:41:53.872Z,3.92
2022-12-12T20:44:23.419Z,4.25
2022-12-12T20:46:50.350Z,4.85
2022-12-12T20:49:19.929Z,6.88
2022-12-12T20:51:56.325Z,4.68
2022-12-12T20:54:25.319Z,5.55
2022-12-12T20:56:53.559Z,6.55
2022-12-12T20:59:20.489Z,8.20
2022-12-12T21:01:48.055Z,5.15
2022-12-12T21:04:16.188Z,4.85
2022-12-12T21:06:48.263Z,4.30
2022-12-12T21:09:22.691Z,6.45
2022-12-12T21:11:51.064Z,5.38
2022-12-12T21:14:18.134Z,6.40
2022-12-12T21:16:45.023Z,5.22
2022-12-12T21:19:14.305Z,5.13
2022-12-12T21:21:42.984Z,5.75
2022-12-12T21:24:11.778Z,5.70
2022-12-12T21:26:39.296Z,2.40
2022-12-12T21:29:06.664Z,5.15
2022-12-12T21:31:37.102Z,6.03
2022-12-12T21:34:05.940Z,3.38
2022-12-12T21:36:33.032Z,6.45
2022-12-12T21:39:01.574Z,4.35
2022-12-12T21:41:28.693Z,4.78
2022-12-12T21:43:57.029Z,6.38
2022-12-12T21:46:26.036Z,6.20
2022-12-12T21:49:11.984Z,3.05
2022-12-12T21:51:40.788Z,4.30
2022-12-12T21:54:09.687Z,2.92
2022-12-12T21:56:37.131Z,3.53
2022-12-12T21:59:04.497Z,4.60
2022-12-12T22:01:32.483Z,4.10
2022-12-12T22:04:00.322Z,3.88
2022-12-12T22:06:29.792Z,4.13
2022-12-12T22:08:58.100Z,4.43
2022-12-12T22:11:40.247Z,5.60
2022-12-12T22:14:12.506Z,6.35
2022-12-12T22:16:39.978Z,2.70
2022-12-12T22:19:10.611Z,5.45
2022-12-12T22:21:37.629Z,5.28
2022-12-12T22:24:05.117Z,3.55
2022-12-12T22:26:34.946Z,3.70
2022-12-12T22:29:05.046Z,4.68
2022-12-12T22:31:34.178Z,4.10
2022-12-12T22:34:03.506Z,4.30
2022-12-12T22:36:32.844Z,4.43
2022-12-12T22:39:01.287Z,5.05
2022-12-12T22:41:29.619Z,3.78
2022-12-12T22:43:59.073Z,8.73
2022-12-12T22:46:27.156Z,3.88
2022-12-12T22:48:59.916Z,4.75
2022-12-12T22:51:32.117Z,3.25
2022-12-12T22:54:01.633Z,4.38
2022-12-12T22:56:30.541Z,5.40
2022-12-12T22:58:57.698Z,3.70
2022-12-12T23:01:25.261Z,3.95
2022-12-12T23:03:53.065Z,6.07
2022-12-12T23:06:24.073Z,3.35
2022-12-12T23:08:57.341Z,8.20
2022-12-12T23:11:27.493Z,5.40
2022-12-12T23:13:58.781Z,4.20
2022-12-12T23:16:27.677Z,4.22
2022-12-12T23:18:55.432Z,3.72
2022-12-12T23:21:23.921Z,3.83
2022-12-12T23:23:51.532Z,6.03
2022-12-12T23:26:21.288Z,4.95
2022-12-12T23:28:48.563Z,4.57
2022-12-12T23:31:22.162Z,4.28
2022-12-12T23:33:53.668Z,4.67
2022-12-12T23:36:21.146Z,4.00
2022-12-12T23:38:48.669Z,3.28
2022-12-12T23:41:16.555Z,4.55
2022-12-12T23:43:43.969Z,3.42
2022-12-12T23:46:28.698Z,4.88
2022-12-12T23:51:33.825Z,3.25
2022-12-12T23:54:03.843Z,5.53
2022-12-12T23:56:31.252Z,4.47
2022-12-12T23:58:59.204Z,4.30
